Time;durP1;ratioP1;P1;durP2;ratioP2;P2;SDS_P1;SDS_P2;PMS_P1;PMS_P2;Temp;Humidity;BMP_temperature;BMP_pressure;BME280_temperature;BME280_humidity;BME280_pressure;Samples;Min_cycle;Max_cycle;Signal;HPM_P1;HPM_P2
2023/09/02 00:01:00;;;;;;;;;2.67;1.00;;;;;21.20;74.17;100184.84;5065150;28;45425;-75
2023/09/02 00:03:26;;;;;;;;;1.00;1.00;;;;;21.23;73.52;100175.97;5059927;28;45324;-75
2023/09/02 00:05:51;;;;;;;;;1.00;1.00;;;;;21.34;74.06;100181.06;5057298;28;45359;-74
2023/09/02 00:08:17;;;;;;;;;1.00;1.00;;;;;21.35;73.78;100167.75;5045480;28;45429;-75
2023/09/02 00:10:43;;;;;;;;;1.00;1.00;;;;;21.30;73.48;100151.00;5065227;28;46377;-75
2023/09/02 00:13:09;;;;;;;;;1.00;1.00;;;;;21.22;74.01;100129.91;5060496;28;46787;-75
2023/09/02 00:15:34;;;;;;;;;1.00;1.00;;;;;21.34;73.72;100141.19;5044114;28;45793;-75
2023/09/02 00:18:00;;;;;;;;;1.00;0.67;;;;;21.40;73.68;100154.34;5068147;28;45692;-75
2023/09/02 00:20:26;;;;;;;;;0.00;0.00;;;;;21.32;72.76;100141.22;5061013;28;45442;-74
2023/09/02 00:22:52;;;;;;;;;1.00;1.00;;;;;21.34;72.79;100143.84;5056919;28;45482;-75
2023/09/02 00:25:17;;;;;;;;;1.33;1.33;;;;;21.38;72.45;100140.22;5064111;28;45478;-75
2023/09/02 00:27:43;;;;;;;;;0.67;0.67;;;;;21.39;73.20;100137.53;5066218;28;45452;-75
2023/09/02 00:30:09;;;;;;;;;1.00;1.00;;;;;21.40;73.04;100143.72;5063097;28;45497;-75
2023/09/02 00:32:35;;;;;;;;;1.00;1.00;;;;;21.40;73.01;100175.63;5070371;28;45487;-75
2023/09/02 00:35:00;;;;;;;;;1.00;1.00;;;;;21.34;73.13;100181.91;5071597;28;45331;-75
2023/09/02 00:37:26;;;;;;;;;1.33;1.00;;;;;21.29;73.74;100204.16;5073989;28;45469;-74
2023/09/02 00:39:52;;;;;;;;;0.33;0.33;;;;;21.29;74.02;100196.19;5064228;28;45451;-75
2023/09/02 00:42:20;;;;;;;;;0.33;0.33;;;;;21.34;73.63;100200.53;5064935;28;45355;-74
2023/09/02 00:44:47;;;;;;;;;0.00;0.00;;;;;21.41;72.64;100211.91;5065466;28;45405;-75
2023/09/02 00:47:13;;;;;;;;;0.67;0.67;;;;;21.34;72.83;100187.25;5068319;28;45493;-75
2023/09/02 00:49:38;;;;;;;;;0.00;0.00;;;;;21.33;72.14;100176.63;5043077;28;45759;-75
2023/09/02 00:52:04;;;;;;;;;0.00;0.00;;;;;21.36;72.13;100180.09;5070971;28;45580;-75
2023/09/02 00:54:32;;;;;;;;;0.00;0.00;;;;;21.40;72.29;100168.50;5072512;28;45517;-75
2023/09/02 00:56:58;;;;;;;;;0.67;0.00;;;;;20.97;71.07;100144.56;5074323;28;45527;-76
2023/09/02 00:59:24;;;;;;;;;0.00;0.00;;;;;20.98;72.82;100122.44;5063407;28;45474;-75
2023/09/02 01:01:50;;;;;;;;;1.00;1.00;;;;;21.02;72.80;100068.38;5064919;28;45404;-76
2023/09/02 01:04:16;;;;;;;;;1.00;0.00;;;;;20.90;72.18;100023.50;5071334;28;45407;-76
2023/09/02 01:06:42;;;;;;;;;2.00;1.00;;;;;20.84;73.88;100019.16;5070994;28;45538;-76
2023/09/02 01:09:10;;;;;;;;;1.00;1.00;;;;;20.90;74.08;100100.47;5066319;28;45481;-76
2023/09/02 01:11:35;;;;;;;;;3.00;0.67;;;;;21.09;74.08;100154.09;5053075;28;46377;-76
2023/09/02 01:14:02;;;;;;;;;0.00;0.00;;;;;21.12;74.04;100085.84;5063887;28;45517;-75
2023/09/02 01:16:29;;;;;;;;;1.33;1.00;;;;;20.84;73.52;99964.28;5065004;28;45473;-75
2023/09/02 01:18:55;;;;;;;;;1.00;1.00;;;;;20.55;73.68;99932.16;5070995;28;45272;-75
2023/09/02 01:21:48;;;;;;;;;2.00;1.00;;;;;20.60;74.31;99986.91;5073890;28;46240;-76
2023/09/02 01:24:16;;;;;;;;;2.00;1.00;;;;;20.76;74.75;100042.34;5069985;28;45548;-75
2023/09/02 01:27:07;;;;;;;;;1.33;1.00;;;;;20.84;75.20;100046.59;5072246;28;45378;-75
2023/09/02 01:29:38;;;;;;;;;1.00;0.00;;;;;20.83;74.90;100059.88;5043862;28;45939;-75
2023/09/02 01:32:06;;;;;;;;;1.00;0.33;;;;;20.79;74.91;100098.91;5070095;28;46224;-74
2023/09/02 01:34:34;;;;;;;;;1.00;1.00;;;;;20.79;75.26;100114.84;5064900;28;45588;-75
2023/09/02 01:37:02;;;;;;;;;1.00;1.00;;;;;20.73;74.95;100112.31;5066309;28;45560;-74
2023/09/02 01:39:30;;;;;;;;;1.00;1.00;;;;;20.85;75.19;100124.47;5067018;28;45386;-75
2023/09/02 01:41:56;;;;;;;;;1.00;1.00;;;;;20.93;74.22;100130.50;5052156;28;46957;-74
2023/09/02 01:44:23;;;;;;;;;2.00;0.00;;;;;20.69;75.15;100097.34;5063641;28;45513;-75
2023/09/02 01:46:49;;;;;;;;;0.67;0.67;;;;;20.74;74.87;100111.38;5061092;28;45651;-74
2023/09/02 01:49:15;;;;;;;;;1.00;1.00;;;;;20.57;75.49;100089.56;5048009;28;45513;-75
2023/09/02 01:51:43;;;;;;;;;0.67;0.67;;;;;20.58;76.52;100093.97;5043849;28;47895;-74
2023/09/02 01:54:09;;;;;;;;;1.00;0.33;;;;;20.55;75.63;100083.41;5068628;28;45529;-75
2023/09/02 01:56:36;;;;;;;;;1.33;1.00;;;;;20.75;75.61;100110.50;5058876;28;45517;-75
2023/09/02 01:59:01;;;;;;;;;1.00;1.00;;;;;20.79;75.48;100098.91;5059902;27;45687;-75
2023/09/02 02:01:27;;;;;;;;;1.00;1.00;;;;;20.82;75.30;100106.81;5058373;28;46600;-75
2023/09/02 02:04:10;;;;;;;;;1.67;1.67;;;;;20.72;75.39;100086.66;5051419;28;45438;-75
2023/09/02 02:06:39;;;;;;;;;2.00;1.00;;;;;20.78;75.67;100101.59;5055399;28;45399;-75
2023/09/02 02:09:12;;;;;;;;;1.00;1.00;;;;;20.79;76.31;100116.59;5061889;28;45372;-75
2023/09/02 02:11:38;;;;;;;;;1.00;1.00;;;;;20.72;75.86;100094.63;5069984;28;46348;-75
2023/09/02 02:14:05;;;;;;;;;2.67;1.67;;;;;20.83;76.15;100103.25;5060428;28;45645;-75
2023/09/02 02:16:32;;;;;;;;;1.00;1.00;;;;;20.89;76.21;100128.81;5066709;28;45350;-75
2023/09/02 02:18:59;;;;;;;;;1.00;1.00;;;;;20.92;76.02;100135.84;5066726;28;45356;-75
2023/09/02 02:21:29;;;;;;;;;1.67;1.00;;;;;20.90;75.91;100141.19;5075974;28;46241;-75
2023/09/02 02:23:56;;;;;;;;;1.00;1.00;;;;;20.89;76.24;100139.44;5064182;28;45548;-75
2023/09/02 02:26:22;;;;;;;;;0.67;0.67;;;;;20.91;76.25;100144.69;5018283;28;1485682;-75
2023/09/02 02:28:48;;;;;;;;;2.00;1.00;;;;;20.85;76.15;100141.28;5061077;28;45444;-75
2023/09/02 02:31:13;;;;;;;;;1.00;1.00;;;;;20.83;76.01;100132.47;5063180;28;45926;-75
2023/09/02 02:33:39;;;;;;;;;1.67;1.00;;;;;20.75;75.68;100115.81;5072706;28;45402;-75
2023/09/02 02:36:05;;;;;;;;;2.00;1.00;;;;;20.80;76.04;100124.53;5068006;28;45523;-75
2023/09/02 02:38:31;;;;;;;;;1.00;1.00;;;;;20.77;75.74;100103.38;5062776;28;45609;-75
2023/09/02 02:40:57;;;;;;;;;1.00;1.00;;;;;20.83;75.88;100095.28;5044474;28;46993;-75
2023/09/02 02:43:26;;;;;;;;;1.33;1.33;;;;;20.73;75.85;100085.75;5068886;28;45402;-76
2023/09/02 02:45:53;;;;;;;;;1.00;1.00;;;;;20.70;75.58;100075.19;5063031;28;45323;-75
2023/09/02 02:48:22;;;;;;;;;0.00;0.00;;;;;20.78;75.42;100093.63;5044976;28;45562;-76
2023/09/02 02:50:47;;;;;;;;;1.00;1.00;;;;;20.68;75.26;100074.34;5066685;28;47239;-75
2023/09/02 02:53:13;;;;;;;;;1.00;0.33;;;;;20.71;75.90;100070.75;5067404;28;45394;-75
2023/09/02 02:55:41;;;;;;;;;1.00;1.00;;;;;20.76;75.74;100072.41;5062657;28;45472;-75
2023/09/02 02:58:07;;;;;;;;;1.00;0.00;;;;;20.66;74.85;100057.56;5067829;28;45521;-75
2023/09/02 03:00:33;;;;;;;;;1.00;1.00;;;;;20.67;75.08;100061.97;5058489;28;46108;-75
2023/09/02 03:02:58;;;;;;;;;1.00;1.00;;;;;20.51;74.91;100029.50;5063839;28;45505;-75
2023/09/02 03:05:24;;;;;;;;;0.67;0.67;;;;;20.53;75.24;100043.66;5071418;28;45326;-76
2023/09/02 03:07:50;;;;;;;;;0.00;0.00;;;;;20.63;75.35;100054.97;5061980;28;45395;-75
2023/09/02 03:10:15;;;;;;;;;1.33;0.00;;;;;20.49;75.22;100036.63;5060261;28;45431;-75
2023/09/02 03:12:41;;;;;;;;;0.67;0.67;;;;;20.55;75.61;100047.16;5067923;28;45497;-75
2023/09/02 03:15:07;;;;;;;;;0.33;0.33;;;;;20.56;75.58;100034.75;5060605;28;45368;-75
2023/09/02 03:17:32;;;;;;;;;0.67;0.67;;;;;20.50;75.92;100011.00;5065349;28;45462;-75
2023/09/02 03:19:58;;;;;;;;;0.67;0.67;;;;;20.56;75.46;100008.22;5071270;28;45415;-75
2023/09/02 03:22:24;;;;;;;;;0.00;0.00;;;;;20.61;75.48;100016.97;5072529;28;45474;-75
2023/09/02 03:24:53;;;;;;;;;1.33;1.00;;;;;20.53;75.11;100001.19;5068643;28;45418;-76
2023/09/02 03:27:19;;;;;;;;;1.67;1.67;;;;;20.56;75.12;100009.06;5048577;28;45339;-75
2023/09/02 03:29:51;;;;;;;;;0.67;0.67;;;;;20.52;74.68;99998.56;5062663;28;45542;-75
2023/09/02 03:32:17;;;;;;;;;0.67;0.67;;;;;20.45;74.77;100001.34;5049784;28;45451;-75
2023/09/02 03:34:42;;;;;;;;;1.00;0.33;;;;;20.30;74.75;99984.84;5060468;28;45343;-75
2023/09/02 03:37:08;;;;;;;;;0.67;0.67;;;;;20.30;75.12;99993.66;5048062;28;45530;-75
2023/09/02 03:39:34;;;;;;;;;1.33;1.00;;;;;20.18;75.64;99972.69;5065571;28;45497;-75
2023/09/02 03:42:00;;;;;;;;;0.67;0.67;;;;;20.22;75.76;99979.69;5066630;28;45530;-75
2023/09/02 03:44:26;;;;;;;;;1.00;0.33;;;;;20.24;75.31;99985.81;5058740;28;45457;-75
2023/09/02 03:46:52;;;;;;;;;0.67;0.67;;;;;20.29;75.40;99985.72;5060071;28;45410;-75
2023/09/02 03:49:17;;;;;;;;;0.67;0.67;;;;;20.31;75.60;99978.63;5062114;28;45533;-75
2023/09/02 03:51:43;;;;;;;;;0.67;0.67;;;;;20.38;75.63;99977.59;5053051;28;45528;-75
2023/09/02 03:54:09;;;;;;;;;0.67;0.67;;;;;20.45;75.38;99982.78;5047527;28;45379;-75
2023/09/02 03:56:36;;;;;;;;;1.67;1.00;;;;;20.44;75.00;99985.44;5070998;28;45944;-75
2023/09/02 03:59:08;;;;;;;;;0.00;0.00;;;;;20.42;75.26;99982.81;5045110;28;46408;-75
2023/09/02 04:01:34;;;;;;;;;1.00;1.00;;;;;20.44;74.88;99977.47;5069839;28;45804;-75
2023/09/02 04:03:59;;;;;;;;;1.00;0.67;;;;;20.41;74.95;99977.53;5062258;28;45601;-75
2023/09/02 04:06:25;;;;;;;;;1.00;1.00;;;;;20.29;75.05;99957.41;5059680;28;45621;-76
2023/09/02 04:08:51;;;;;;;;;0.67;0.67;;;;;20.20;74.72;99952.31;5044315;28;47015;-75
2023/09/02 04:11:17;;;;;;;;;1.00;1.00;;;;;20.07;75.42;99941.03;5067759;28;45442;-75
2023/09/02 04:13:42;;;;;;;;;1.67;1.00;;;;;20.11;75.52;99955.13;5063499;28;45443;-75
2023/09/02 04:16:10;;;;;;;;;0.33;0.33;;;;;19.99;75.19;99946.47;5064544;28;45426;-75
2023/09/02 04:18:36;;;;;;;;;0.67;0.67;;;;;20.02;75.50;99957.03;5064450;28;45582;-75
2023/09/02 04:21:04;;;;;;;;;0.00;0.00;;;;;20.09;75.64;99959.59;5068862;28;45512;-75
2023/09/02 04:23:30;;;;;;;;;0.67;0.67;;;;;20.08;75.63;99965.81;5060579;27;45365;-75
2023/09/02 04:25:58;;;;;;;;;0.67;0.67;;;;;20.08;75.94;99976.41;5074845;28;45473;-75
2023/09/02 04:28:24;;;;;;;;;3.00;3.00;;;;;20.01;75.87;99965.88;5075592;27;48032;-75
2023/09/02 04:30:53;;;;;;;;;3.67;3.00;;;;;20.15;75.29;99972.72;5066230;28;45455;-75
2023/09/02 04:33:22;;;;;;;;;4.00;3.33;;;;;20.13;75.44;99974.53;5057234;28;45407;-74
2023/09/02 04:35:48;;;;;;;;;6.33;6.00;;;;;20.08;74.75;99957.84;5065788;28;45423;-74
2023/09/02 04:38:14;;;;;;;;;2.00;2.00;;;;;20.21;75.07;99970.84;5076880;28;45533;-74
2023/09/02 04:40:41;;;;;;;;;2.00;1.00;;;;;20.12;74.30;99970.16;5059292;28;45357;-74
2023/09/02 04:43:10;;;;;;;;;2.00;1.67;;;;;19.96;75.15;99967.75;5039110;28;45913;-74
2023/09/02 04:45:37;;;;;;;;;4.00;3.00;;;;;19.84;75.42;99954.72;5057011;28;45285;-75
2023/09/02 04:48:04;;;;;;;;;2.33;1.67;;;;;19.76;75.78;99954.88;5056570;28;46465;-75
2023/09/02 04:50:31;;;;;;;;;2.33;1.67;;;;;19.64;76.56;99945.31;5056403;28;45490;-74
2023/09/02 04:52:57;;;;;;;;;1.33;1.33;;;;;19.75;76.35;99946.94;5066494;27;45592;-74
2023/09/02 04:55:27;;;;;;;;;0.67;0.67;;;;;19.73;76.46;99935.47;5073599;28;45351;-74
2023/09/02 04:57:53;;;;;;;;;1.00;1.00;;;;;19.83;76.03;99934.41;5054940;28;47607;-74
2023/09/02 05:00:20;;;;;;;;;1.67;1.67;;;;;19.96;75.67;99951.00;5055532;28;45941;-74
2023/09/02 05:02:46;;;;;;;;;1.00;1.00;;;;;20.01;75.71;99954.41;5056205;28;45516;-74
2023/09/02 05:05:16;;;;;;;;;0.67;0.67;;;;;20.03;75.37;99956.16;5056214;28;45451;-74
2023/09/02 05:07:42;;;;;;;;;1.00;1.00;;;;;19.96;75.37;99928.00;5056378;28;45394;-74
2023/09/02 05:10:08;;;;;;;;;1.67;1.67;;;;;19.97;75.80;99911.19;5055694;28;45526;-74
2023/09/02 05:12:34;;;;;;;;;0.67;0.67;;;;;19.93;75.75;99917.44;5055284;28;45597;-74
2023/09/02 05:15:00;;;;;;;;;1.67;1.67;;;;;20.02;75.75;99930.53;5056098;28;45522;-74
2023/09/02 05:17:26;;;;;;;;;2.33;2.00;;;;;20.06;75.93;99937.53;5070220;28;46992;-74
2023/09/02 05:19:51;;;;;;;;;2.00;2.00;;;;;20.03;75.82;99920.78;5057714;27;45399;-74
2023/09/02 05:22:17;;;;;;;;;2.00;1.33;;;;;20.01;75.55;99906.69;5060766;28;45312;-74
2023/09/02 05:24:43;;;;;;;;;2.00;1.00;;;;;19.91;75.60;99895.38;5059775;28;45565;-74
2023/09/02 05:27:09;;;;;;;;;1.33;0.67;;;;;19.99;75.68;99914.66;5059322;28;45558;-74
2023/09/02 05:29:34;;;;;;;;;1.33;1.33;;;;;20.00;75.29;99921.72;5059193;28;45504;-74
2023/09/02 05:32:00;;;;;;;;;1.00;1.00;;;;;20.03;75.45;99931.41;5075269;28;45344;-74
2023/09/02 05:34:26;;;;;;;;;5.00;5.00;;;;;20.13;75.60;99948.00;5059627;28;45502;-74
2023/09/02 05:36:51;;;;;;;;;1.00;1.00;;;;;20.18;75.14;99970.91;5068169;28;45477;-73
2023/09/02 05:39:17;;;;;;;;;1.33;1.33;;;;;20.19;75.37;99979.72;5078730;28;45706;-74
2023/09/02 05:41:45;;;;;;;;;0.67;0.67;;;;;20.22;75.25;99995.59;5078297;28;45387;-74
2023/09/02 05:44:11;;;;;;;;;2.00;2.00;;;;;20.26;74.95;100007.88;5078156;28;45457;-74
2023/09/02 05:46:36;;;;;;;;;4.67;4.00;;;;;20.22;74.84;100009.72;5078068;28;45473;-73
2023/09/02 05:49:02;;;;;;;;;0.67;0.67;;;;;20.25;74.51;100030.91;5078490;28;45366;-74
2023/09/02 05:51:28;;;;;;;;;2.00;2.00;;;;;20.17;74.77;100030.13;5052284;28;45662;-73
2023/09/02 05:53:54;;;;;;;;;7.67;7.33;;;;;20.23;74.92;100048.63;5078704;27;45580;-74
2023/09/02 05:56:20;;;;;;;;;3.33;3.00;;;;;20.19;74.86;100051.31;5074884;28;45538;-74
2023/09/02 05:58:46;;;;;;;;;4.33;2.33;;;;;20.34;74.49;100084.69;5059506;28;45509;-74
2023/09/02 06:01:11;;;;;;;;;4.00;4.00;;;;;20.27;74.37;100081.22;5068776;28;45788;-74
2023/09/02 06:03:37;;;;;;;;;2.33;1.67;;;;;20.36;74.47;100099.66;5066772;28;45553;-74
2023/09/02 06:06:10;;;;;;;;;3.33;3.33;;;;;20.44;73.91;100108.34;5077021;28;45956;-74
2023/09/02 06:08:36;;;;;;;;;2.33;2.33;;;;;20.44;74.06;100103.03;5077260;28;45560;-74
2023/09/02 06:11:02;;;;;;;;;0.67;0.33;;;;;20.54;74.04;100119.69;5058350;28;45506;-74
2023/09/02 06:13:29;;;;;;;;;1.00;1.00;;;;;20.71;73.19;100145.97;5062729;28;45585;-74
2023/09/02 06:16:03;;;;;;;;;1.67;0.67;;;;;20.66;73.17;100143.38;5078019;28;46092;-73
2023/09/02 06:18:30;;;;;;;;;1.67;1.67;;;;;20.69;73.39;100165.44;5054815;28;45647;-74
2023/09/02 06:20:56;;;;;;;;;1.33;1.33;;;;;20.46;74.66;100161.41;5077334;28;45474;-73
2023/09/02 06:23:25;;;;;;;;;1.00;1.00;;;;;20.52;74.46;100160.41;5077560;28;45666;-73
2023/09/02 06:26:00;;;;;;;;;2.00;1.67;;;;;20.61;73.83;100133.75;5075605;28;45954;-74
2023/09/02 06:28:27;;;;;;;;;1.00;1.00;;;;;20.75;73.35;100128.19;5063397;28;45469;-74
2023/09/02 06:30:53;;;;;;;;;1.00;1.00;;;;;20.92;72.70;100146.47;5077483;28;45504;-73
2023/09/02 06:33:21;;;;;;;;;2.00;2.00;;;;;21.00;72.96;100152.50;5077993;28;45577;-74
2023/09/02 06:35:48;;;;;;;;;1.33;1.33;;;;;21.06;72.40;100128.47;5074512;27;46192;-73
2023/09/02 06:38:14;;;;;;;;;2.00;2.00;;;;;21.18;72.38;100127.34;5078145;28;45444;-74
2023/09/02 06:40:40;;;;;;;;;1.00;1.00;;;;;21.11;71.87;100116.00;5075935;28;45719;-75
2023/09/02 06:43:06;;;;;;;;;1.33;1.33;;;;;21.05;72.12;100105.50;5072763;28;45532;-75
2023/09/02 06:45:31;;;;;;;;;1.67;1.67;;;;;20.95;72.55;100106.56;5072150;27;47122;-74
2023/09/02 06:47:58;;;;;;;;;1.00;1.00;;;;;21.07;72.26;100103.69;5069605;27;45572;-73
2023/09/02 06:50:23;;;;;;;;;1.33;1.00;;;;;21.14;71.83;100096.47;5059716;28;46047;-74
2023/09/02 06:52:51;;;;;;;;;2.33;2.00;;;;;20.97;73.00;100084.41;5062362;28;45367;-74
2023/09/02 06:55:16;;;;;;;;;3.33;2.00;;;;;21.02;72.65;100100.22;5070635;28;45613;-74
2023/09/02 06:57:43;;;;;;;;;2.00;2.00;;;;;21.06;72.88;100123.16;5065574;28;45708;-74
2023/09/02 07:00:09;;;;;;;;;1.00;1.00;;;;;21.10;72.80;100127.50;5059417;28;45406;-75
2023/09/02 07:02:35;;;;;;;;;2.33;2.00;;;;;21.13;72.84;100137.19;5066606;28;45465;-75
2023/09/02 07:05:02;;;;;;;;;4.00;2.00;;;;;21.15;73.28;100156.63;5076467;28;45371;-75
2023/09/02 07:07:28;;;;;;;;;2.00;2.00;;;;;21.16;73.40;100153.94;5055018;28;45223;-74
2023/09/02 07:09:54;;;;;;;;;2.00;2.00;;;;;21.16;72.78;100156.59;5065197;28;45611;-74
2023/09/02 07:12:19;;;;;;;;;2.00;1.00;;;;;21.19;73.47;100159.22;5075514;28;45604;-75
2023/09/02 07:14:45;;;;;;;;;2.00;2.00;;;;;21.13;73.12;100147.81;5064620;28;45633;-74
2023/09/02 07:17:11;;;;;;;;;2.00;1.00;;;;;21.12;73.35;100136.31;5058661;28;45500;-75
2023/09/02 07:19:36;;;;;;;;;4.33;4.33;;;;;21.10;73.61;100132.81;5076224;28;46559;-74
2023/09/02 07:22:02;;;;;;;;;5.00;4.00;;;;;21.11;73.99;100128.38;5068679;28;45592;-75
2023/09/02 07:24:28;;;;;;;;;4.00;3.00;;;;;21.10;74.25;100116.03;5070575;28;46529;-75
2023/09/02 07:26:53;;;;;;;;;4.67;2.67;;;;;20.94;74.89;100113.66;5073838;28;45476;-75
2023/09/02 07:29:20;;;;;;;;;4.00;3.00;;;;;21.01;74.81;100123.28;5064916;28;45455;-73
2023/09/02 07:31:45;;;;;;;;;3.00;2.00;;;;;21.10;74.58;100132.81;5059922;28;45312;-73
2023/09/02 07:34:11;;;;;;;;;3.00;2.67;;;;;21.15;74.26;100138.94;5063982;28;45541;-73
2023/09/02 07:36:37;;;;;;;;;3.00;2.00;;;;;21.20;74.01;100131.72;5076637;28;45370;-74
2023/09/02 07:39:02;;;;;;;;;2.67;2.67;;;;;21.21;74.30;100127.31;5075367;28;45351;-74
2023/09/02 07:41:28;;;;;;;;;3.67;3.67;;;;;21.23;74.04;100123.72;5056250;28;45655;-75
2023/09/02 07:43:54;;;;;;;;;2.00;2.00;;;;;21.18;74.22;100122.03;5073455;27;45448;-74
2023/09/02 07:46:19;;;;;;;;;3.00;3.00;;;;;21.24;74.01;100128.09;5076306;28;45587;-75
2023/09/02 07:48:48;;;;;;;;;4.00;4.00;;;;;21.31;73.92;100155.44;5058368;28;45465;-74
2023/09/02 07:51:14;;;;;;;;;3.00;3.00;;;;;21.35;73.53;100151.81;5074204;28;45374;-75
2023/09/02 07:53:40;;;;;;;;;2.33;2.33;;;;;21.35;73.68;100125.22;5070553;27;46109;-73
2023/09/02 07:56:05;;;;;;;;;2.67;2.67;;;;;21.37;73.48;100130.53;5055977;28;45559;-73
2023/09/02 07:58:32;;;;;;;;;3.00;3.00;;;;;21.31;73.61;100126.22;5073700;28;45265;-74
2023/09/02 08:00:58;;;;;;;;;3.67;2.67;;;;;21.41;73.88;100140.19;5056580;28;45702;-75
2023/09/02 08:03:24;;;;;;;;;2.33;1.33;;;;;21.40;73.53;100128.66;5072926;28;45442;-74
2023/09/02 08:05:54;;;;;;;;;2.00;2.00;;;;;21.43;73.39;100141.91;5069299;28;46685;-75
2023/09/02 08:08:21;;;;;;;;;2.00;2.00;;;;;21.40;73.82;100144.59;5070862;28;45449;-76
2023/09/02 08:10:47;;;;;;;;;2.00;2.00;;;;;21.43;73.53;100143.72;5075466;28;45471;-76
2023/09/02 08:13:13;;;;;;;;;2.00;2.00;;;;;21.45;73.13;100148.06;5066827;28;45971;-74
2023/09/02 08:15:39;;;;;;;;;2.00;2.00;;;;;21.43;73.42;100152.56;5047357;28;45494;-74
2023/09/02 08:18:05;;;;;;;;;3.00;2.00;;;;;21.42;72.92;100157.84;5072891;28;45539;-74
2023/09/02 08:20:31;;;;;;;;;1.00;1.00;;;;;21.31;73.23;100143.91;5075334;28;45629;-75
2023/09/02 08:22:57;;;;;;;;;2.33;2.33;;;;;21.17;73.81;100144.19;5073137;28;47473;-75
2023/09/02 08:25:23;;;;;;;;;2.67;2.00;;;;;21.02;73.58;100143.59;5075250;27;45460;-75
2023/09/02 08:27:48;;;;;;;;;2.67;2.67;;;;;21.09;74.01;100154.09;5071061;28;45370;-75
2023/09/02 08:30:15;;;;;;;;;3.67;3.67;;;;;21.20;74.63;100187.50;5038156;28;45447;-75
2023/09/02 08:32:41;;;;;;;;;3.67;3.67;;;;;21.24;74.52;100217.56;5069765;28;46622;-75
2023/09/02 08:35:08;;;;;;;;;1.33;1.33;;;;;21.18;74.19;100217.66;5058927;28;45722;-75
2023/09/02 08:37:34;;;;;;;;;3.00;3.00;;;;;21.13;74.17;100223.09;5061709;28;45364;-76
2023/09/02 08:40:01;;;;;;;;;1.33;1.33;;;;;20.97;73.97;100198.59;5066211;28;45474;-76
2023/09/02 08:42:27;;;;;;;;;3.67;3.00;;;;;21.12;73.68;100236.38;5069314;28;46106;-75
2023/09/02 08:44:55;;;;;;;;;3.00;2.00;;;;;21.10;74.03;100255.00;5064882;27;45791;-75
2023/09/02 08:47:23;;;;;;;;;2.00;2.00;;;;;21.13;73.71;100257.59;5060618;27;45309;-75
2023/09/02 08:49:52;;;;;;;;;4.00;2.67;;;;;21.12;73.55;100254.97;5074378;27;45542;-76
2023/09/02 08:52:18;;;;;;;;;1.00;1.00;;;;;21.05;73.88;100252.44;5062107;27;46088;-75
2023/09/02 08:54:45;;;;;;;;;2.33;2.00;;;;;20.98;73.60;100239.28;5062221;28;45535;-75
2023/09/02 08:57:11;;;;;;;;;1.67;1.00;;;;;21.03;73.35;100245.41;5059137;28;45632;-75
2023/09/02 08:59:37;;;;;;;;;1.33;1.33;;;;;20.97;74.21;100248.13;5059497;28;45367;-77
2023/09/02 09:02:04;;;;;;;;;3.00;3.00;;;;;21.00;74.04;100264.03;5058965;28;45866;-74
2023/09/02 09:04:35;;;;;;;;;3.00;2.00;;;;;20.96;73.87;100260.53;5079772;28;45406;-75
2023/09/02 09:07:05;;;;;;;;;1.67;1.67;;;;;20.95;73.86;100244.63;5077829;28;45698;-76
2023/09/02 09:09:36;;;;;;;;;3.00;3.00;;;;;21.11;74.12;100271.78;5068451;27;45810;-73
2023/09/02 09:12:03;;;;;;;;;3.33;3.33;;;;;21.09;74.54;100294.84;5087266;27;45368;-74
2023/09/02 09:14:36;;;;;;;;;2.00;2.00;;;;;21.02;74.78;100302.94;5089394;27;45381;-74
2023/09/02 09:17:03;;;;;;;;;2.00;1.67;;;;;21.05;74.21;100333.88;5086658;27;45507;-74
2023/09/02 09:19:30;;;;;;;;;2.00;2.00;;;;;21.06;74.29;100359.53;5064400;27;45532;-74
2023/09/02 09:21:57;;;;;;;;;3.00;2.00;;;;;21.00;73.97;100356.97;5086056;27;45622;-74
2023/09/02 09:24:23;;;;;;;;;3.00;3.00;;;;;21.02;73.68;100356.03;5088617;27;45535;-73
2023/09/02 09:26:50;;;;;;;;;2.33;2.33;;;;;20.98;73.94;100366.75;5089064;27;45394;-75
2023/09/02 09:29:17;;;;;;;;;1.00;1.00;;;;;20.81;73.77;100346.66;5088233;27;45473;-74
2023/09/02 09:31:44;;;;;;;;;0.00;0.00;;;;;20.80;73.71;100344.00;5085530;27;46303;-73
2023/09/02 09:34:10;;;;;;;;;0.00;0.00;;;;;20.90;73.76;100355.38;5081596;27;45397;-74
2023/09/02 09:36:36;;;;;;;;;1.00;1.00;;;;;20.93;73.50;100350.00;5085180;27;45436;-74
2023/09/02 09:39:07;;;;;;;;;0.00;0.00;;;;;20.91;72.89;100331.47;5064927;27;45324;-74
2023/09/02 09:41:34;;;;;;;;;0.00;0.00;;;;;20.84;72.49;100305.91;5083184;27;46199;-74
2023/09/02 09:44:16;;;;;;;;;0.00;0.00;;;;;20.92;72.26;100298.69;5059666;28;45647;-74
2023/09/02 09:46:44;;;;;;;;;0.67;0.67;;;;;20.95;71.58;100308.34;5061857;28;45790;-74
2023/09/02 09:49:33;;;;;;;;;0.00;0.00;;;;;20.90;71.21;100299.63;5070517;28;45691;-75
2023/09/02 09:51:59;;;;;;;;;0.00;0.00;;;;;20.94;70.83;100304.84;5073619;28;45711;-75
2023/09/02 09:54:37;;;;;;;;;0.00;0.00;;;;;21.00;71.24;100296.75;5061948;28;45339;-75
2023/09/02 09:57:12;;;;;;;;;0.00;0.00;;;;;21.03;70.33;100293.22;5069838;28;45364;-75
2023/09/02 09:59:38;;;;;;;;;0.00;0.00;;;;;21.10;70.37;100293.97;5074927;27;45565;-75
2023/09/02 10:02:04;;;;;;;;;0.00;0.00;;;;;21.08;70.14;100282.50;5067336;27;47867;-75
2023/09/02 10:04:31;;;;;;;;;0.00;0.00;;;;;21.19;70.57;100284.06;5087578;27;45606;-75
2023/09/02 10:06:59;;;;;;;;;0.00;0.00;;;;;21.21;69.57;100276.06;5052658;27;45505;-75
2023/09/02 10:09:24;;;;;;;;;0.00;0.00;;;;;21.33;69.25;100275.84;5071573;27;45561;-75
2023/09/02 10:11:50;;;;;;;;;0.00;0.00;;;;;21.45;68.98;100288.06;5077339;27;45609;-75
2023/09/02 10:14:17;;;;;;;;;0.00;0.00;;;;;21.47;68.87;100275.63;5063613;27;45499;-75
2023/09/02 10:16:46;;;;;;;;;1.00;1.00;;;;;21.52;69.58;100276.38;5068610;27;45755;-74
2023/09/02 10:19:11;;;;;;;;;5.00;3.67;;;;;21.67;69.30;100282.31;5084485;27;45473;-75
2023/09/02 10:21:39;;;;;;;;;0.00;0.00;;;;;21.71;69.90;100284.88;5067626;27;45971;-74
2023/09/02 10:24:10;;;;;;;;;1.00;1.00;;;;;21.91;69.91;100296.91;5064853;28;45463;-74
2023/09/02 10:26:48;;;;;;;;;0.00;0.00;;;;;22.05;68.74;100271.75;5068229;27;45534;-76
2023/09/02 10:29:21;;;;;;;;;0.00;0.00;;;;;22.12;69.34;100266.28;5056772;28;45666;-75
2023/09/02 10:31:51;;;;;;;;;0.00;0.00;;;;;22.22;69.03;100267.84;5073611;28;46124;-74
2023/09/02 10:34:31;;;;;;;;;1.00;0.00;;;;;22.48;67.62;100272.59;5075068;28;45362;-74
2023/09/02 10:36:59;;;;;;;;;0.33;0.33;;;;;22.50;68.53;100275.22;5073565;28;45547;-74
2023/09/02 10:39:52;;;;;;;;;5.00;5.00;;;;;22.73;67.50;100291.53;5053355;28;45450;-75
2023/09/02 10:42:18;;;;;;;;;0.00;0.00;;;;;22.75;66.53;100287.03;5052980;28;45555;-74
2023/09/02 10:44:45;;;;;;;;;0.00;0.00;;;;;22.79;66.53;100270.06;5074837;28;45418;-75
2023/09/02 10:47:11;;;;;;;;;0.00;0.00;;;;;22.99;66.21;100287.34;5077513;28;45427;-74
2023/09/02 10:49:37;;;;;;;;;0.00;0.00;;;;;23.08;64.97;100280.91;5045282;28;45422;-74
2023/09/02 10:52:03;;;;;;;;;0.00;0.00;;;;;23.03;64.85;100286.38;5047461;28;45679;-74
2023/09/02 10:55:05;;;;;;;;;0.33;0.33;;;;;22.97;64.63;100292.69;5064234;28;45378;-74
2023/09/02 10:57:31;;;;;;;;;0.67;0.67;;;;;22.77;64.31;100279.88;5064181;28;45366;-74
2023/09/02 11:00:16;;;;;;;;;0.00;0.00;;;;;22.83;65.15;100300.16;5059317;28;45910;-73
2023/09/02 11:02:42;;;;;;;;;1.00;1.00;;;;;22.77;65.55;100295.00;5072188;28;46104;-73
2023/09/02 11:05:09;;;;;;;;;0.33;0.33;;;;;22.76;65.25;100280.81;5040702;28;45884;-74
2023/09/02 11:07:40;;;;;;;;;0.00;0.00;;;;;22.71;65.60;100284.50;5077707;27;45428;-74
2023/09/02 11:10:07;;;;;;;;;0.00;0.00;;;;;22.55;65.38;100270.66;5072860;28;45576;-76
2023/09/02 11:12:34;;;;;;;;;0.00;0.00;;;;;22.61;65.19;100282.03;5073546;28;45437;-75
2023/09/02 11:15:08;;;;;;;;;0.00;0.00;;;;;22.70;65.64;100296.94;5064745;28;45553;-76
2023/09/02 11:17:36;;;;;;;;;1.00;0.00;;;;;22.66;65.51;100297.94;5075553;28;45438;-75
2023/09/02 11:20:05;;;;;;;;;0.00;0.00;;;;;22.57;66.29;100296.34;5060638;27;45438;-75
2023/09/02 11:22:55;;;;;;;;;0.00;0.00;;;;;22.55;66.00;100297.28;5054429;28;45638;-76
2023/09/02 11:25:27;;;;;;;;;0.00;0.00;;;;;22.52;65.63;100290.25;5041582;28;45521;-76
2023/09/02 11:27:58;;;;;;;;;0.00;0.00;;;;;22.49;65.78;100292.13;5040898;28;45501;-77